Time;durP1;ratioP1;P1;durP2;ratioP2;P2;SDS_P1;SDS_P2;PMS_P1;PMS_P2;Temp;Humidity;BMP_temperature;BMP_pressure;BME280_temperature;BME280_humidity;BME280_pressure;Samples;Min_cycle;Max_cycle;Signal;HPM_P1;HPM_P2
2022/04/08 00:01:04;;;;;;;2.02;1.60;;;;;;;11.10;64.58;94193.08;1638349;87;21359;-83
2022/04/08 00:03:29;;;;;;;1.02;0.60;;;;;;;11.12;64.58;94188.42;1618321;88;21012;-83
2022/04/08 00:05:57;;;;;;;1.82;1.00;;;;;;;11.12;64.69;94187.64;1632851;87;21075;-83
2022/04/08 00:08:23;;;;;;;0.82;0.60;;;;;;;11.08;64.67;94178.23;1644659;87;21014;-83
2022/04/08 00:10:49;;;;;;;1.37;0.70;;;;;;;11.06;64.64;94175.09;1626616;88;21032;-83
2022/04/08 00:13:15;;;;;;;2.55;1.00;;;;;;;11.03;64.70;94166.96;1632322;87;21366;-83
2022/04/08 00:15:41;;;;;;;2.12;1.25;;;;;;;11.00;65.56;94170.04;1617004;89;21034;-83
2022/04/08 00:18:07;;;;;;;1.45;0.75;;;;;;;10.94;65.02;94171.00;1617122;89;21017;-83
2022/04/08 00:20:34;;;;;;;1.72;0.60;;;;;;;10.91;65.42;94178.77;1625747;87;21423;-83
2022/04/08 00:23:01;;;;;;;0.95;0.60;;;;;;;10.90;64.56;94177.67;1626622;88;21296;-83
2022/04/08 00:25:27;;;;;;;1.47;0.93;;;;;;;10.90;64.71;94182.38;1604543;89;21084;-83
2022/04/08 00:27:53;;;;;;;1.20;0.62;;;;;;;10.88;65.12;94193.50;1622555;88;21049;-81
2022/04/08 00:30:19;;;;;;;1.20;0.50;;;;;;;10.79;66.55;94200.91;1622619;88;20962;-81
2022/04/08 00:32:45;;;;;;;2.75;0.70;;;;;;;10.65;66.20;94193.66;1622521;88;21289;-81
2022/04/08 00:35:10;;;;;;;1.80;0.90;;;;;;;10.53;66.43;94219.17;1614799;87;20961;-81
2022/04/08 00:37:36;;;;;;;3.90;0.80;;;;;;;10.46;66.97;94221.14;1622566;88;21075;-81
2022/04/08 00:40:03;;;;;;;8.55;1.00;;;;;;;10.39;67.37;94231.37;1622488;88;20953;-81
2022/04/08 00:42:29;;;;;;;2.98;0.65;;;;;;;10.30;68.09;94234.86;1622535;88;20970;-81
2022/04/08 00:44:55;;;;;;;0.70;0.57;;;;;;;10.20;68.15;94248.91;1622631;88;21341;-81
2022/04/08 00:47:20;;;;;;;2.37;0.78;;;;;;;10.08;68.26;94252.83;1622570;88;20982;-81
2022/04/08 00:49:46;;;;;;;2.60;1.10;;;;;;;10.02;69.03;94278.41;1622666;88;21017;-81
2022/04/08 00:52:12;;;;;;;1.37;0.93;;;;;;;9.95;69.78;94279.05;1622517;88;20949;-81
2022/04/08 00:54:38;;;;;;;0.88;0.60;;;;;;;9.86;71.19;94275.22;1622764;88;21349;-81
2022/04/08 00:57:04;;;;;;;1.70;0.93;;;;;;;9.73;70.62;94282.73;1622567;88;21020;-81
2022/04/08 00:59:30;;;;;;;1.05;0.62;;;;;;;9.64;71.17;94299.66;1621972;88;20982;-81
2022/04/08 01:01:58;;;;;;;1.10;0.70;;;;;;;9.57;72.78;94298.47;1605961;88;21411;-81
2022/04/08 01:04:27;;;;;;;1.50;0.68;;;;;;;9.49;72.03;94301.41;1622544;88;20991;-81
2022/04/08 01:06:52;;;;;;;1.60;0.70;;;;;;;9.42;72.47;94290.34;1622544;87;21062;-81
2022/04/08 01:09:17;;;;;;;0.80;0.70;;;;;;;9.33;72.43;94282.13;1622331;88;20962;-81
2022/04/08 01:11:43;;;;;;;1.55;1.22;;;;;;;9.28;72.00;94291.60;1622731;88;21057;-81
2022/04/08 01:14:10;;;;;;;2.00;0.70;;;;;;;9.21;72.02;94290.91;1622634;88;21324;-81
2022/04/08 01:16:36;;;;;;;1.40;0.93;;;;;;;9.19;71.68;94292.93;1622451;88;21542;-81
2022/04/08 01:19:03;;;;;;;1.70;0.50;;;;;;;9.17;71.92;94285.38;1625625;86;21115;-80
2022/04/08 01:21:28;;;;;;;0.85;0.60;;;;;;;9.18;72.00;94284.87;1626730;88;20997;-81
2022/04/08 01:23:56;;;;;;;1.47;0.50;;;;;;;9.20;72.71;94287.52;1621424;88;21055;-81
2022/04/08 01:26:22;;;;;;;1.82;0.90;;;;;;;9.21;72.57;94285.21;1621563;88;21510;-81
2022/04/08 01:28:47;;;;;;;1.98;0.72;;;;;;;9.23;73.09;94283.18;1602181;88;20992;-81
2022/04/08 01:31:13;;;;;;;1.67;0.70;;;;;;;9.24;72.82;94292.53;1601832;88;20961;-81
2022/04/08 01:33:39;;;;;;;1.37;0.70;;;;;;;9.21;72.99;94292.98;1621629;87;21016;-81
2022/04/08 01:36:05;;;;;;;1.32;0.70;;;;;;;9.23;73.27;94295.34;1605822;89;21084;-81
2022/04/08 01:38:31;;;;;;;0.93;0.60;;;;;;;9.22;73.52;94296.36;1619691;88;21016;-81
2022/04/08 01:40:56;;;;;;;1.57;0.60;;;;;;;9.19;73.38;94302.00;1621519;88;21059;-81
2022/04/08 01:43:22;;;;;;;1.30;0.70;;;;;;;9.20;73.56;94302.28;1602172;88;21047;-81
2022/04/08 01:45:48;;;;;;;1.65;0.65;;;;;;;9.20;73.89;94308.76;1598976;88;21004;-81
2022/04/08 01:48:13;;;;;;;2.02;0.90;;;;;;;9.20;73.77;94312.64;1621609;88;21028;-81
2022/04/08 01:50:39;;;;;;;1.30;0.80;;;;;;;9.20;73.79;94313.94;1594757;88;21124;-81
2022/04/08 01:53:05;;;;;;;3.50;1.02;;;;;;;9.20;73.73;94315.23;1595121;88;20953;-81
2022/04/08 01:55:31;;;;;;;1.82;0.80;;;;;;;9.19;74.41;94309.77;1594969;88;21423;-80
2022/04/08 01:57:57;;;;;;;1.87;0.72;;;;;;;9.13;72.93;94315.86;1621688;88;21049;-81
2022/04/08 02:00:23;;;;;;;1.02;0.75;;;;;;;9.09;72.75;94310.81;1620805;88;21143;-81
2022/04/08 02:02:48;;;;;;;1.10;0.60;;;;;;;9.03;72.05;94328.83;1605729;88;21071;-81
2022/04/08 02:05:14;;;;;;;1.98;0.70;;;;;;;8.99;70.02;94324.33;1594796;90;21071;-81
2022/04/08 02:07:40;;;;;;;2.67;0.80;;;;;;;8.95;69.75;94322.69;1617614;88;21072;-81
2022/04/08 02:10:06;;;;;;;0.82;0.50;;;;;;;8.90;68.03;94348.44;1608222;88;21140;-81
2022/04/08 02:12:32;;;;;;;2.30;0.80;;;;;;;8.91;68.32;94360.37;1594939;90;20973;-81
2022/04/08 02:14:58;;;;;;;0.95;0.82;;;;;;;8.90;68.29;94367.87;1594748;90;21072;-81
2022/04/08 02:17:28;;;;;;;3.98;0.95;;;;;;;8.87;67.32;94365.72;1594691;90;21103;-81
2022/04/08 02:19:55;;;;;;;3.45;0.90;;;;;;;8.85;64.80;94387.17;1599018;88;21459;-81
2022/04/08 02:22:24;;;;;;;2.30;0.70;;;;;;;8.81;62.21;94382.15;1620986;88;21020;-81
2022/04/08 02:24:51;;;;;;;2.55;0.78;;;;;;;8.77;60.18;94388.75;1625045;88;21024;-81
2022/04/08 02:27:19;;;;;;;4.62;0.80;;;;;;;8.69;60.75;94383.89;1629012;88;21004;-81
2022/04/08 02:29:44;;;;;;;3.62;1.40;;;;;;;8.67;60.27;94397.56;1654600;87;21388;-81
2022/04/08 02:32:10;;;;;;;2.92;0.78;;;;;;;8.61;59.41;94413.44;1645293;87;20975;-81
2022/04/08 02:34:38;;;;;;;4.92;1.30;;;;;;;8.53;59.71;94433.66;1649771;85;21018;-81
2022/04/08 02:37:05;;;;;;;3.05;0.98;;;;;;;8.39;61.70;94426.03;1651796;87;21062;-81
2022/04/08 02:39:31;;;;;;;2.45;1.10;;;;;;;8.14;61.16;94444.69;1654518;87;20990;-82
2022/04/08 02:41:57;;;;;;;3.87;1.10;;;;;;;7.89;63.19;94456.83;1654752;87;21016;-83
2022/04/08 02:44:23;;;;;;;3.47;1.42;;;;;;;7.60;65.75;94469.88;1614871;88;21384;-83
2022/04/08 02:46:49;;;;;;;3.58;1.87;;;;;;;7.25;67.08;94466.41;1626645;88;21010;-83
2022/04/08 02:49:14;;;;;;;3.00;1.20;;;;;;;6.99;68.93;94449.75;1626848;87;20990;-83
2022/04/08 02:51:40;;;;;;;3.30;1.42;;;;;;;6.83;68.87;94455.71;1626473;88;21523;-83
2022/04/08 02:54:06;;;;;;;3.52;2.00;;;;;;;6.74;69.60;94461.30;1643477;87;21117;-83
2022/04/08 02:56:32;;;;;;;4.10;1.47;;;;;;;6.65;71.16;94468.45;1654598;87;21042;-83
2022/04/08 02:59:00;;;;;;;3.45;1.87;;;;;;;6.59;70.79;94484.27;1646907;87;20995;-83
2022/04/08 03:01:25;;;;;;;2.83;2.10;;;;;;;6.54;70.65;94472.98;1636083;87;21022;-83
2022/04/08 03:03:51;;;;;;;2.95;1.77;;;;;;;6.50;70.49;94468.70;1654728;87;21030;-83
2022/04/08 03:06:16;;;;;;;4.58;1.70;;;;;;;6.48;69.89;94477.64;1654503;87;21042;-82
2022/04/08 03:08:42;;;;;;;5.08;1.25;;;;;;;6.41;68.95;94487.98;1651296;87;21483;-82
2022/04/08 03:11:08;;;;;;;2.42;1.17;;;;;;;6.37;68.55;94477.78;1626362;88;21091;-82
2022/04/08 03:13:35;;;;;;;3.42;1.60;;;;;;;6.38;67.87;94483.23;1630162;87;21434;-82
2022/04/08 03:16:01;;;;;;;3.10;1.40;;;;;;;6.37;67.43;94482.95;1631850;88;20996;-82
2022/04/08 03:18:28;;;;;;;2.62;1.50;;;;;;;6.37;66.34;94482.95;1653902;87;21001;-82
2022/04/08 03:20:54;;;;;;;3.72;1.37;;;;;;;6.36;66.86;94492.97;1646074;87;21110;-82
2022/04/08 03:23:19;;;;;;;2.55;1.20;;;;;;;6.34;66.24;94491.06;1646319;87;21029;-82
2022/04/08 03:25:45;;;;;;;4.10;1.27;;;;;;;6.30;65.19;94488.09;1590776;90;21445;-82
2022/04/08 03:28:11;;;;;;;1.92;1.00;;;;;;;6.29;65.78;94497.33;1628109;87;20999;-82
2022/04/08 03:30:37;;;;;;;3.67;1.10;;;;;;;6.25;65.78;94507.26;1654362;87;21010;-82
2022/04/08 03:33:03;;;;;;;3.17;1.00;;;;;;;6.20;65.47;94511.44;1649331;87;20979;-82
2022/04/08 03:35:29;;;;;;;3.25;0.90;;;;;;;6.17;64.87;94498.92;1653847;85;21037;-81
2022/04/08 03:37:55;;;;;;;2.45;1.00;;;;;;;6.18;64.90;94511.64;1654375;87;21045;-82
2022/04/08 03:40:20;;;;;;;3.35;0.90;;;;;;;6.14;64.95;94512.22;1654244;87;20989;-82
2022/04/08 03:42:46;;;;;;;4.92;1.00;;;;;;;6.12;63.32;94504.69;1647199;87;21050;-82
2022/04/08 03:45:15;;;;;;;3.58;1.10;;;;;;;6.16;63.84;94505.08;1626174;88;21054;-81
2022/04/08 03:47:42;;;;;;;4.12;1.12;;;;;;;6.18;63.69;94507.78;1626261;88;21473;-82
2022/04/08 03:50:08;;;;;;;3.22;1.05;;;;;;;6.20;63.53;94512.23;1626305;88;21001;-82
2022/04/08 03:52:33;;;;;;;1.45;1.00;;;;;;;6.21;63.38;94533.66;1626277;88;21077;-82
2022/04/08 03:55:00;;;;;;;3.62;0.98;;;;;;;6.20;63.71;94532.86;1630340;87;21000;-81
2022/04/08 03:57:26;;;;;;;2.83;1.07;;;;;;;6.22;62.57;94548.93;1642709;87;22260;-81
2022/04/08 03:59:52;;;;;;;3.52;1.27;;;;;;;6.23;63.16;94542.78;1652935;87;21094;-82
2022/04/08 04:02:18;;;;;;;4.17;1.17;;;;;;;6.22;63.57;94542.48;1650412;87;21035;-81
2022/04/08 04:04:43;;;;;;;3.37;1.10;;;;;;;6.21;63.32;94536.23;1649357;87;21538;-82
2022/04/08 04:07:09;;;;;;;2.50;0.93;;;;;;;6.19;63.34;94535.15;1649229;87;21010;-81
2022/04/08 04:09:35;;;;;;;3.08;1.02;;;;;;;6.19;62.92;94544.67;1652736;87;21009;-81
2022/04/08 04:12:03;;;;;;;4.87;1.50;;;;;;;6.20;62.86;94548.84;1653988;87;21178;-81
2022/04/08 04:14:29;;;;;;;3.98;1.60;;;;;;;6.20;62.85;94538.02;1654386;87;21018;-81
2022/04/08 04:16:55;;;;;;;2.67;1.30;;;;;;;6.21;63.41;94543.97;1654291;87;21038;-81
2022/04/08 04:19:20;;;;;;;3.10;1.27;;;;;;;6.21;63.96;94531.08;1642630;87;21376;-81
2022/04/08 04:21:50;;;;;;;3.42;1.00;;;;;;;6.19;63.97;94540.31;1617346;87;21165;-82
2022/04/08 04:24:16;;;;;;;3.42;1.10;;;;;;;6.19;64.26;94539.52;1617100;89;20987;-81
2022/04/08 04:26:41;;;;;;;3.50;1.20;;;;;;;6.19;64.35;94545.47;1612874;87;21353;-81
2022/04/08 04:29:08;;;;;;;4.17;1.40;;;;;;;6.21;64.22;94551.71;1611151;89;21006;-81
2022/04/08 04:31:34;;;;;;;4.78;1.37;;;;;;;6.24;64.22;94550.81;1613995;87;21017;-81
2022/04/08 04:33:59;;;;;;;4.05;1.30;;;;;;;6.25;63.75;94570.45;1632641;87;20995;-81
2022/04/08 04:36:25;;;;;;;2.37;1.35;;;;;;;6.26;63.42;94566.08;1643249;87;21063;-81
2022/04/08 04:38:51;;;;;;;2.20;0.85;;;;;;;6.28;63.27;94576.98;1644029;87;21380;-81
2022/04/08 04:41:17;;;;;;;2.75;1.30;;;;;;;6.28;62.38;94582.15;1644828;87;20991;-81
2022/04/08 04:43:43;;;;;;;3.27;1.20;;;;;;;6.29;62.75;94578.58;1644146;87;21381;-81
2022/04/08 04:46:09;;;;;;;2.52;1.30;;;;;;;6.27;62.28;94591.67;1621999;87;21086;-80
2022/04/08 04:48:35;;;;;;;4.03;1.20;;;;;;;6.26;61.90;94584.93;1620189;87;21021;-81
2022/04/08 04:51:00;;;;;;;3.50;1.20;;;;;;;6.25;61.46;94582.05;1644859;87;21101;-81
2022/04/08 04:53:26;;;;;;;2.67;1.12;;;;;;;6.25;60.72;94591.58;1644728;87;21010;-81
2022/04/08 04:55:54;;;;;;;2.22;0.90;;;;;;;6.25;60.80;94608.34;1644875;87;20963;-81
2022/04/08 04:58:20;;;;;;;2.87;0.93;;;;;;;6.23;60.10;94612.91;1644833;86;21138;-81
2022/04/08 05:00:45;;;;;;;3.55;1.27;;;;;;;6.26;60.28;94611.22;1642687;87;20998;-81
2022/04/08 05:03:12;;;;;;;5.70;1.20;;;;;;;6.25;60.29;94610.42;1623720;87;21062;-81
2022/04/08 05:05:39;;;;;;;3.33;1.10;;;;;;;6.24;60.35;94607.55;1625165;87;21003;-81
2022/04/08 05:08:07;;;;;;;3.22;1.10;;;;;;;6.25;59.73;94614.79;1621416;87;20988;-81
2022/04/08 05:10:32;;;;;;;4.25;1.15;;;;;;;6.26;59.94;94611.22;1618309;87;21030;-81
2022/04/08 05:13:01;;;;;;;3.30;1.30;;;;;;;6.26;58.72;94615.09;1617661;87;21384;-81
2022/04/08 05:15:28;;;;;;;5.17;1.25;;;;;;;6.29;58.91;94628.88;1618417;87;20951;-81
2022/04/08 05:17:54;;;;;;;3.52;1.02;;;;;;;6.30;58.91;94636.41;1644578;87;20979;-81
2022/04/08 05:20:20;;;;;;;2.42;1.47;;;;;;;6.33;58.25;94636.50;1647035;87;21053;-81
2022/04/08 05:22:46;;;;;;;3.42;1.20;;;;;;;6.38;58.58;94642.38;1654149;87;21033;-81
2022/04/08 05:25:11;;;;;;;3.85;1.05;;;;;;;6.39;57.01;94627.99;1629313;88;21052;-81
2022/04/08 05:27:38;;;;;;;3.30;1.85;;;;;;;6.42;58.23;94654.68;1648986;87;21027;-81
2022/04/08 05:30:07;;;;;;;2.75;1.00;;;;;;;6.45;57.98;94661.23;1627486;87;21027;-81
2022/04/08 05:32:34;;;;;;;3.65;1.20;;;;;;;6.47;58.34;94652.79;1623798;87;21113;-81
2022/04/08 05:34:59;;;;;;;3.40;1.25;;;;;;;6.50;57.74;94657.55;1646459;87;21134;-81
2022/04/08 05:37:25;;;;;;;3.08;0.75;;;;;;;6.53;57.22;94661.05;1627493;87;21013;-81
2022/04/08 05:39:53;;;;;;;2.98;1.17;;;;;;;6.57;57.40;94675.92;1631054;87;20990;-81
2022/04/08 05:42:20;;;;;;;4.33;1.65;;;;;;;6.62;57.26;94683.86;1630327;87;21013;-81
2022/04/08 05:44:46;;;;;;;5.90;2.90;;;;;;;6.66;56.97;94667.48;1629319;87;21009;-81
2022/04/08 05:47:11;;;;;;;4.10;1.35;;;;;;;6.70;57.18;94685.96;1630049;87;20962;-81
2022/04/08 05:49:37;;;;;;;3.52;1.40;;;;;;;6.73;57.06;94685.56;1627434;87;21341;-81
2022/04/08 05:52:04;;;;;;;2.08;1.00;;;;;;;6.76;56.64;94688.53;1628689;87;21033;-81
2022/04/08 05:54:31;;;;;;;3.00;1.10;;;;;;;6.83;56.50;94696.26;1633561;87;21009;-81
2022/04/08 05:57:00;;;;;;;3.87;1.10;;;;;;;6.87;56.33;94685.36;1635138;87;21440;-81
2022/04/08 05:59:24;;;;;;;2.30;1.20;;;;;;;6.91;55.93;94691.70;1627066;87;21026;-82
2022/04/08 06:01:50;;;;;;;4.37;1.00;;;;;;;6.98;56.17;94712.34;1625239;87;21061;-82
2022/04/08 06:04:16;;;;;;;2.65;1.27;;;;;;;7.07;56.32;94696.16;1623887;87;21018;-81
2022/04/08 06:06:43;;;;;;;4.72;1.62;;;;;;;6.90;55.81;94668.67;1628645;87;21014;-83
2022/04/08 06:09:09;;;;;;;3.42;1.00;;;;;;;7.20;55.30;94707.27;1642209;87;21394;-84
2022/04/08 06:11:35;;;;;;;4.80;1.20;;;;;;;7.32;55.43;94714.38;1652085;87;21062;-82
2022/04/08 06:14:00;;;;;;;1.75;0.93;;;;;;;7.44;55.03;94709.69;1626850;87;20989;-82
2022/04/08 06:16:26;;;;;;;1.67;0.70;;;;;;;7.56;55.32;94711.16;1627383;87;21427;-82
2022/04/08 06:18:52;;;;;;;2.60;0.88;;;;;;;7.68;54.14;94716.00;1627382;87;21005;-82
2022/04/08 06:21:18;;;;;;;2.58;1.12;;;;;;;7.81;53.22;94723.72;1636475;87;21006;-82
2022/04/08 06:23:45;;;;;;;4.00;1.10;;;;;;;7.91;54.74;94722.47;1639413;87;21425;-82
2022/04/08 06:26:11;;;;;;;3.30;1.22;;;;;;;8.02;52.94;94723.12;1612711;88;21370;-82
2022/04/08 06:28:36;;;;;;;3.67;0.90;;;;;;;8.13;54.66;94737.52;1631737;87;21058;-82
2022/04/08 06:31:03;;;;;;;2.77;1.00;;;;;;;8.21;53.83;94731.29;1629311;87;21016;-82
2022/04/08 06:33:28;;;;;;;3.47;1.07;;;;;;;8.20;54.16;94727.12;1638795;87;20978;-82
2022/04/08 06:35:54;;;;;;;2.75;1.25;;;;;;;8.25;54.30;94744.60;1647015;87;21005;-82
2022/04/08 06:38:20;;;;;;;3.70;1.00;;;;;;;8.28;53.29;94739.80;1654204;87;21062;-82
2022/04/08 06:40:46;;;;;;;6.75;1.85;;;;;;;8.28;53.17;94753.23;1634991;87;21408;-82
2022/04/08 06:43:12;;;;;;;4.58;1.10;;;;;;;8.31;53.75;94751.56;1626190;88;21062;-82
2022/04/08 06:45:37;;;;;;;2.65;1.15;;;;;;;8.39;53.51;94752.62;1630467;87;21038;-82
2022/04/08 06:48:04;;;;;;;3.42;1.00;;;;;;;8.55;53.13;94757.81;1637681;87;21357;-82
2022/04/08 06:50:30;;;;;;;3.37;0.90;;;;;;;8.60;52.47;94758.77;1626854;87;21021;-82
2022/04/08 06:52:59;;;;;;;3.08;1.40;;;;;;;8.53;52.52;94770.97;1627867;87;21049;-82
2022/04/08 06:55:24;;;;;;;3.42;1.02;;;;;;;8.47;52.86;94749.02;1631136;85;21086;-82
2022/04/08 06:57:50;;;;;;;2.45;0.93;;;;;;;8.49;52.45;94766.42;1637545;87;20998;-82
2022/04/08 07:00:17;;;;;;;4.95;1.00;;;;;;;8.51;52.93;94785.92;1632870;87;20993;-82
2022/04/08 07:02:42;;;;;;;2.98;1.62;;;;;;;8.54;52.28;94786.80;1630174;87;21059;-80
2022/04/08 07:05:09;;;;;;;3.30;1.35;;;;;;;8.55;51.38;94760.41;1626195;87;21029;-82
2022/04/08 07:07:36;;;;;;;2.42;0.90;;;;;;;8.63;52.28;94786.06;1633915;87;21129;-81
2022/04/08 07:10:04;;;;;;;3.25;0.93;;;;;;;8.70;51.62;94793.27;1640759;85;20970;-81
2022/04/08 07:12:29;;;;;;;4.75;1.20;;;;;;;8.76;53.27;94792.43;1627038;87;20999;-81
2022/04/08 07:14:55;;;;;;;2.00;0.78;;;;;;;8.77;52.24;94799.70;1627718;87;21024;-82
2022/04/08 07:17:29;;;;;;;1.90;0.72;;;;;;;8.73;51.69;94792.35;1628076;87;21074;-82
2022/04/08 07:19:55;;;;;;;5.03;1.20;;;;;;;8.66;51.24;94803.27;1627810;88;21069;-82
2022/04/08 07:22:22;;;;;;;3.45;1.02;;;;;;;8.69;52.27;94801.55;1627614;87;21072;-83
2022/04/08 07:24:48;;;;;;;2.17;1.05;;;;;;;8.74;51.94;94807.39;1626234;87;21013;-81
2022/04/08 07:27:13;;;;;;;2.58;1.10;;;;;;;8.73;51.79;94803.21;1627306;87;21127;-81
2022/04/08 07:29:39;;;;;;;3.17;1.05;;;;;;;8.72;50.95;94805.52;1627549;88;21561;-80
2022/04/08 07:32:06;;;;;;;2.85;0.90;;;;;;;8.73;51.59;94810.98;1624942;87;20958;-80
2022/04/08 07:34:32;;;;;;;3.42;0.78;;;;;;;8.81;51.72;94814.63;1635146;87;21078;-79
2022/04/08 07:36:58;;;;;;;3.30;0.85;;;;;;;8.90;51.75;94821.64;1654344;87;21504;-79
2022/04/08 07:39:23;;;;;;;2.75;1.15;;;;;;;9.00;50.68;94811.62;1654486;87;21085;-79
2022/04/08 07:41:51;;;;;;;2.85;1.02;;;;;;;9.01;51.96;94815.80;1643764;87;21060;-79
2022/04/08 07:44:16;;;;;;;3.20;0.95;;;;;;;9.06;51.34;94827.61;1628075;88;21021;-81
2022/04/08 07:46:42;;;;;;;3.08;1.47;;;;;;;9.10;51.27;94820.20;1632288;85;20975;-80
2022/04/08 07:49:09;;;;;;;3.77;2.25;;;;;;;9.00;50.49;94825.37;1654425;87;21021;-81
2022/04/08 07:51:35;;;;;;;1.52;1.15;;;;;;;9.02;50.18;94827.75;1653710;87;21061;-79
2022/04/08 07:54:00;;;;;;;2.77;0.90;;;;;;;9.10;49.83;94839.14;1654011;87;21095;-79
2022/04/08 07:56:27;;;;;;;3.50;1.12;;;;;;;9.14;50.02;94851.20;1652758;87;21014;-79
2022/04/08 07:58:53;;;;;;;2.00;1.02;;;;;;;9.23;51.34;94837.75;1648411;87;21421;-79
2022/04/08 08:01:19;;;;;;;2.02;1.02;;;;;;;9.20;49.59;94842.57;1632734;87;21017;-79
2022/04/08 08:03:46;;;;;;;4.60;1.07;;;;;;;9.23;50.88;94849.92;1628747;87;21019;-79
2022/04/08 08:06:12;;;;;;;3.40;0.98;;;;;;;9.23;50.26;94849.92;1628396;87;21073;-79
2022/04/08 08:08:37;;;;;;;3.42;0.98;;;;;;;9.25;50.07;94846.61;1647454;87;21045;-79
2022/04/08 08:11:11;;;;;;;4.15;1.40;;;;;;;9.45;50.41;94840.00;1641281;87;21089;-79
2022/04/08 08:13:31;;;;;;;3.12;0.90;;;;;;;9.59;51.32;94851.83;1628875;85;21026;-79
2022/04/08 08:15:57;;;;;;;2.87;0.90;;;;;;;9.86;50.57;94848.50;1636453;87;21385;-80
2022/04/08 08:18:24;;;;;;;2.10;1.05;;;;;;;10.11;50.71;94847.97;1637046;87;20982;-79
2022/04/08 08:20:50;;;;;;;2.33;1.27;;;;;;;10.29;49.86;94854.98;1626695;87;21538;-79
2022/04/08 08:23:16;;;;;;;4.05;1.07;;;;;;;10.37;49.20;94850.00;1630382;87;21061;-80
2022/04/08 08:25:43;;;;;;;2.25;0.70;;;;;;;10.33;49.50;94860.03;1632340;87;21062;-80
2022/04/08 08:28:09;;;;;;;3.95;1.27;;;;;;;10.39;48.45;94850.57;1633047;87;20993;-80
2022/04/08 08:30:36;;;;;;;3.87;0.95;;;;;;;10.58;49.86;94866.45;1635937;87;20970;-79
2022/04/08 08:33:05;;;;;;;3.47;0.80;;;;;;;10.73;49.99;94870.73;1634646;87;21404;-79
2022/04/08 08:35:32;;;;;;;3.27;1.00;;;;;;;10.71;48.37;94875.36;1629129;87;21041;-79
2022/04/08 08:37:58;;;;;;;3.27;1.00;;;;;;;10.57;48.61;94879.63;1630956;87;21066;-79
2022/04/08 08:40:24;;;;;;;2.65;1.10;;;;;;;10.58;49.09;94874.75;1632814;87;21313;-80
2022/04/08 08:42:50;;;;;;;3.70;1.07;;;;;;;10.67;49.29;94874.72;1627185;87;21018;-80
2022/04/08 08:45:17;;;;;;;2.33;0.90;;;;;;;10.70;48.16;94884.16;1629394;87;21001;-79
2022/04/08 08:47:47;;;;;;;2.70;0.70;;;;;;;10.62;48.20;94880.58;1633142;87;21070;-80
2022/04/08 08:50:13;;;;;;;2.80;0.88;;;;;;;10.52;48.63;94897.95;1636680;87;21420;-81
2022/04/08 08:52:39;;;;;;;3.50;1.20;;;;;;;10.45;48.27;94892.56;1638424;87;21057;-82
2022/04/08 08:55:05;;;;;;;3.00;0.80;;;;;;;10.48;48.80;94889.02;1634833;87;21035;-80
2022/04/08 08:57:31;;;;;;;2.77;0.80;;;;;;;10.49;47.63;94898.91;1634088;87;21329;-80
2022/04/08 09:00:13;;;;;;;1.80;1.00;;;;;;;10.41;47.50;94888.31;1634872;87;21440;-80
2022/04/08 09:02:40;;;;;;;2.25;1.10;;;;;;;10.38;48.15;94894.42;1649745;87;20989;-80
2022/04/08 09:05:18;;;;;;;3.62;1.12;;;;;;;10.20;47.40;94905.05;1648208;87;21494;-80
2022/04/08 09:07:58;;;;;;;1.82;1.00;;;;;;;10.11;47.44;94900.38;1628964;87;20986;-81
2022/04/08 09:10:29;;;;;;;2.33;1.10;;;;;;;10.09;47.99;94912.78;1640431;87;21077;-80
2022/04/08 09:12:56;;;;;;;3.92;0.90;;;;;;;10.42;49.41;94909.87;1650651;86;21050;-81
2022/04/08 09:15:22;;;;;;;3.08;0.78;;;;;;;10.56;47.84;94907.40;1653910;87;21037;-81
2022/04/08 09:17:47;;;;;;;2.92;1.17;;;;;;;10.55;48.21;94913.61;1646863;87;20975;-81
2022/04/08 09:20:13;;;;;;;3.02;0.90;;;;;;;10.58;48.16;94915.80;1634017;87;20947;-80
2022/04/08 09:22:39;;;;;;;2.77;0.93;;;;;;;10.76;48.43;94907.98;1623919;87;21431;-81
2022/04/08 09:25:10;;;;;;;4.30;0.70;;;;;;;10.89;47.54;94904.92;1628823;87;21457;-80
2022/04/08 09:27:40;;;;;;;4.58;1.02;;;;;;;11.06;47.84;94921.02;1628436;87;21393;-81
2022/04/08 09:30:10;;;;;;;4.05;1.42;;;;;;;11.13;46.48;94904.81;1598746;88;21020;-81
2022/04/08 09:32:36;;;;;;;4.90;1.07;;;;;;;11.23;46.82;94906.89;1634559;87;21345;-81
2022/04/08 09:35:03;;;;;;;1.72;1.00;;;;;;;11.26;46.02;94892.14;1623866;87;21046;-81
2022/04/08 09:37:29;;;;;;;4.15;1.60;;;;;;;11.34;45.80;94901.42;1619149;87;21127;-80
2022/04/08 09:39:57;;;;;;;4.03;1.00;;;;;;;11.45;45.62;94907.67;1630108;87;21094;-80
2022/04/08 09:42:24;;;;;;;3.95;1.07;;;;;;;11.50;45.96;94903.89;1639496;87;21022;-81
2022/04/08 09:44:51;;;;;;;3.85;1.07;;;;;;;11.47;45.19;94917.34;1601908;88;21361;-80
2022/04/08 09:47:17;;;;;;;2.22;0.90;;;;;;;11.43;45.34;94918.30;1639642;87;21047;-80
2022/04/08 09:49:43;;;;;;;4.20;1.05;;;;;;;11.39;44.20;94910.66;1640345;87;21022;-81
2022/04/08 09:52:09;;;;;;;4.35;1.10;;;;;;;11.38;44.90;94909.84;1635491;87;21357;-80
2022/04/08 09:54:35;;;;;;;1.70;0.82;;;;;;;11.37;45.10;94905.66;1613083;87;20978;-80
2022/04/08 09:57:02;;;;;;;2.83;0.90;;;;;;;11.44;45.46;94904.28;1618834;87;21039;-81
2022/04/08 09:59:34;;;;;;;3.55;1.02;;;;;;;11.46;43.61;94919.66;1618965;87;21087;-80
2022/04/08 10:02:02;;;;;;;3.12;1.05;;;;;;;11.48;44.93;94918.42;1616986;87;21019;-80
2022/04/08 10:04:25;;;;;;;2.90;0.95;;;;;;;11.56;45.23;94905.11;1618666;87;20991;-80
2022/04/08 10:06:51;;;;;;;2.85;0.95;;;;;;;11.64;44.75;94903.98;1612637;87;21031;-81
2022/04/08 10:09:18;;;;;;;2.62;0.75;;;;;;;11.68;45.34;94906.41;1629683;87;21006;-80
2022/04/08 10:12:04;;;;;;;4.05;1.32;;;;;;;11.72;44.24;94905.76;1623049;87;21038;-81
2022/04/08 10:14:56;;;;;;;3.27;1.00;;;;;;;11.80;44.97;94904.66;1618221;88;21051;-81
2022/04/08 10:17:22;;;;;;;2.33;0.88;;;;;;;11.94;45.75;94902.13;1620625;87;21124;-81
2022/04/08 10:19:48;;;;;;;4.47;0.85;;;;;;;12.12;44.17;94905.12;1621092;87;21109;-80
2022/04/08 10:22:16;;;;;;;3.40;1.17;;;;;;;12.22;42.82;94907.17;1643511;86;20994;-80
2022/04/08 10:24:56;;;;;;;2.67;1.10;;;;;;;12.27;44.72;94914.57;1611061;88;21056;-81
2022/04/08 10:27:30;;;;;;;3.67;0.80;;;;;;;12.48;45.33;94908.48;1638526;87;20981;-81
2022/04/08 10:29:55;;;;;;;3.22;0.75;;;;;;;12.68;43.08;94891.16;1626941;88;21389;-80
2022/04/08 10:32:21;;;;;;;2.50;0.90;;;;;;;12.70;42.17;94917.81;1633716;87;20979;-81
2022/04/08 10:34:49;;;;;;;2.92;0.70;;;;;;;12.62;42.97;94915.03;1631168;87;21120;-80
2022/04/08 10:37:21;;;;;;;2.50;0.98;;;;;;;12.73;42.34;94929.08;1626700;87;21448;-81
2022/04/08 10:40:05;;;;;;;2.37;0.90;;;;;;;12.69;42.14;94931.35;1644205;85;21117;-80
2022/04/08 10:42:34;;;;;;;3.47;0.90;;;;;;;12.75;42.38;94942.66;1653882;87;21014;-80
2022/04/08 10:44:59;;;;;;;3.62;1.12;;;;;;;12.69;42.29;94927.92;1636312;87;21047;-80
2022/04/08 10:47:27;;;;;;;2.37;0.72;;;;;;;12.67;42.18;94925.55;1633293;87;21019;-80
2022/04/08 10:49:57;;;;;;;3.35;1.00;;;;;;;12.77;42.89;94922.38;1605656;87;21028;-83
2022/04/08 10:52:26;;;;;;;1.87;0.88;;;;;;;12.93;42.44;94923.74;1642137;87;21631;-80
2022/04/08 10:55:08;;;;;;;3.08;0.78;;;;;;;13.15;43.29;94932.22;1635182;87;21030;-81
2022/04/08 10:57:43;;;;;;;3.70;1.05;;;;;;;13.37;42.51;94918.06;1644307;87;21066;-80
2022/04/08 11:00:12;;;;;;;2.70;0.90;;;;;;;13.21;42.21;94924.30;1626421;87;21038;-80
2022/04/08 11:02:40;;;;;;;2.33;0.85;;;;;;;13.26;42.75;94922.81;1633293;87;21049;-80
2022/04/08 11:05:09;;;;;;;3.08;0.68;;;;;;;13.43;42.54;94928.85;1627497;85;21050;-80
2022/04/08 11:07:42;;;;;;;4.40;1.20;;;;;;;13.61;42.36;94920.02;1638880;87;20970;-80
2022/04/08 11:10:13;;;;;;;4.60;1.17;;;;;;;13.64;42.56;94929.47;1635037;85;20994;-80
2022/04/08 11:12:51;;;;;;;3.08;0.75;;;;;;;13.50;39.34;94939.44;1649105;87;21006;-80
2022/04/08 11:15:20;;;;;;;2.65;0.90;;;;;;;13.12;39.79;94937.39;1634444;87;20955;-80
2022/04/08 11:17:49;;;;;;;3.47;0.85;;;;;;;12.96;39.77;94925.60;1642017;87;21045;-80
2022/04/08 11:20:17;;;;;;;3.37;1.25;;;;;;;12.82;39.95;94923.77;1633767;87;20947;-80
2022/04/08 11:22:45;;;;;;;3.25;1.00;;;;;;;12.78;40.27;94941.69;1639059;87;21022;-80
2022/04/08 11:25:21;;;;;;;1.80;0.82;;;;;;;12.67;40.49;94942.48;1605545;88;21343;-80
2022/04/08 11:28:04;;;;;;;2.67;1.15;;;;;;;12.65;40.59;94933.32;1621693;87;21019;-80
2022/04/08 11:30:32;;;;;;;2.62;0.90;;;;;;;12.50;39.83;94924.67;1625365;87;21043;-80
2022/04/08 11:32:58;;;;;;;2.40;1.12;;;;;;;12.52;41.57;94940.87;1622693;87;21035;-80
2022/04/08 11:35:29;;;;;;;2.22;0.80;;;;;;;12.54;41.11;94923.22;1619276;87;21105;-80
2022/04/08 11:37:56;;;;;;;3.37;1.20;;;;;;;12.72;40.63;94923.58;1622143;88;21086;-80